Elbow, Canada
Current Conditions -  °F | °C
As of 4:00 AM on Wednesday 26 Nov 2014 (Local Time) from CYXE Reporting Station
Light Snow Light Snow  
Wind Chill: -25°   Ceiling: 1800
Heat Index: -17°   Visibility: 15mi
Dew Point: -19°   Wind: 8mph
Humidity: 85%   Direction: 30°NNE
Pressure: 30.37"   Gusts: NA
Location:  51.12°N, 106.6°W
Report Text: CYXE 261000Z 03007KT 15SM -SN OVC018 M17/M19 A3037 RMK SC8 SLP332
Loading
Personal Weather Stations






























Interactive Weather Map New forecast layout! Learn more

10-Day Weather Forecast

Advertisements
Track Severe Weather on mobile